Terminal Aerodrome Forecast
Issued by NWS La Crosse, WI

Home | Current Version | Previous Version | Text Only | Print | Product List | Glossary On
Versions: 1 2 3 4 5 6 7 8 9 10 11 12 13 14 15 16 17 18 19 20 21 22 23 24 25 26 27 28 29 30 31 32
000
FTUS43 KARX 291128
TAFLSE
TAF
KLSE 291128Z 2912/3012 33014KT P6SM OVC014
     FM291500 32020G29KT P6SM OVC012
     FM300000 32015G23KT P6SM OVC022
     FM300700 33012G18KT P6SM OVC028=

USA.gov is the U.S. government's official web portal to all federal, state and local government web resources and services.